Hays Regional Airport
KHYS : rendu visible

Aérodrome :











RETROUVEZ-NOUS SUR...

 
LOGIN :

S'inscrire | Disclaimer

   EN    FR    IT 

 









Légende :    VFR   VFR Marginal   IFR   IFR Intensif   IFR Très Intensif
Visi : 
Plafond : 
>= 8 km
>= 3000ft
5 à 8 km
1000 à 3000 ft
1500m à 5 km
500 à 1000 ft
800 à 1500m
200 à 500 ft
< 800m
< 200 ft
Symboles :   Orages  Brouillard  Fortes neiges  Fortes précipitations  Vent > 20 kt






- Altitude de l'aérodrome : 1999 ft


KHYS - Hays Regional

DERNIER METAR :
  • 211556Z AUTO 35018KT 10SM OVC018 03/M01 A3014 RMK AO2 PK WND 36026/1540 SLP218 T00281011

METARs EXPIRÉS :
  • 211509Z AUTO 35014G20KT 10SM BKN020 03/M01 A3014 RMK AO2
  • 211456Z AUTO 35014KT 10SM FEW020 02/M01 A3012 RMK AO2 SLP209 T00221011 52024 FZRANO
  • 211356Z AUTO 35010KT 10SM CLR 02/M01 A3010 RMK AO2 SLP201 T00171011 FZRANO
  • 211338Z AUTO 34010KT 10SM FEW028 02/M01 A3011 RMK AO2 FZRANO

TAF KHYS
Valide du 21 à 15h jusqu'au 22 à 12h UTC


211512Z 2115/2212 35012KT P6SM BKN020
FM212100 03013KT P6SM BKN050
FM220300 02007KT P6SM VCSH OVC070



MET'MAP, la Météo Aéronautique d'un coup d'oeil ! - Copyright ORBIFLY Décembre 2007 - Disclaimer

ORBIFLY MET'MAP TEAM :

Programmation & Développement : Alexandra Zaïnal
Conception & Développement : Baudouin d'Aumeries
Co-Programmation & Développement : Marc-Olivier Méhu
Soutien technique & logistique : Manuel Goepfert

Contact : metmap@orbifly.com




SOURCES & CREDITS :

   NOAA       Earth
Advisory